createdAt,value
2017-04-30T00:00:25.558Z,9.50
2017-04-30T00:02:52.251Z,10.37
2017-04-30T00:05:18.918Z,9.62
2017-04-30T00:07:45.578Z,8.43
2017-04-30T00:10:12.242Z,8.48
2017-04-30T00:12:38.907Z,10.73
2017-04-30T00:15:05.578Z,9.58
2017-04-30T00:17:32.252Z,9.38
2017-04-30T00:19:58.910Z,7.92
2017-04-30T00:22:25.571Z,7.28
2017-04-30T00:24:52.227Z,7.35
2017-04-30T00:27:18.899Z,7.10
2017-04-30T00:29:45.574Z,7.33
2017-04-30T00:32:12.235Z,8.18
2017-04-30T00:34:38.899Z,7.97
2017-04-30T00:37:05.558Z,7.43
2017-04-30T00:39:32.227Z,6.98
2017-04-30T00:41:58.886Z,6.47
2017-04-30T00:44:25.995Z,6.98
2017-04-30T00:46:52.661Z,7.47
2017-04-30T00:49:19.323Z,7.63
2017-04-30T00:51:46.017Z,7.45
2017-04-30T00:54:12.675Z,7.40
2017-04-30T00:56:39.335Z,7.53
2017-04-30T00:59:05.994Z,7.32
2017-04-30T01:01:32.667Z,7.45
2017-04-30T01:03:59.323Z,6.68
2017-04-30T01:06:25.987Z,7.48
2017-04-30T01:08:52.650Z,7.27
2017-04-30T01:11:19.320Z,8.42
2017-04-30T01:13:45.988Z,7.13
2017-04-30T01:16:12.646Z,7.62
2017-04-30T01:18:39.309Z,7.03
2017-04-30T01:21:05.969Z,7.35
2017-04-30T01:23:32.626Z,7.22
2017-04-30T01:25:59.286Z,7.40
2017-04-30T01:28:25.944Z,8.05
2017-04-30T01:30:52.608Z,7.53
2017-04-30T01:33:19.271Z,7.20
2017-04-30T01:35:45.942Z,7.50
2017-04-30T01:38:12.603Z,6.82
2017-04-30T01:40:39.269Z,6.85
2017-04-30T01:43:05.926Z,7.77
2017-04-30T01:45:32.599Z,7.92
2017-04-30T01:47:59.260Z,7.83
2017-04-30T01:50:26.618Z,7.83
2017-04-30T01:52:53.326Z,8.15
2017-04-30T01:55:19.998Z,8.22
2017-04-30T01:57:46.655Z,7.58
2017-04-30T02:00:13.320Z,8.28
2017-04-30T02:02:39.982Z,8.18
2017-04-30T02:05:06.642Z,7.83
2017-04-30T02:07:33.302Z,8.67
2017-04-30T02:09:59.967Z,7.68
2017-04-30T02:12:26.631Z,8.15
2017-04-30T02:14:53.304Z,7.55
2017-04-30T02:17:19.970Z,8.62
2017-04-30T02:19:46.675Z,8.50
2017-04-30T02:22:13.345Z,9.18
2017-04-30T02:24:40.015Z,8.12
2017-04-30T02:27:06.707Z,8.10
2017-04-30T02:29:33.355Z,8.08
2017-04-30T02:32:00.014Z,8.68
2017-04-30T02:34:26.667Z,8.13
2017-04-30T02:36:53.339Z,8.67
2017-04-30T02:39:19.998Z,8.40
2017-04-30T02:41:46.658Z,8.87
2017-04-30T02:44:13.315Z,8.07
2017-04-30T02:46:39.994Z,8.72
2017-04-30T02:49:06.654Z,8.67
2017-04-30T02:51:33.322Z,9.55
2017-04-30T02:53:59.986Z,8.48
2017-04-30T02:56:26.650Z,9.12
2017-04-30T02:58:53.315Z,9.23
2017-04-30T03:01:19.988Z,9.98
2017-04-30T03:03:46.650Z,9.10
2017-04-30T03:06:13.310Z,8.30
2017-04-30T03:08:39.974Z,7.95
2017-04-30T03:11:06.638Z,8.13
2017-04-30T03:13:33.308Z,8.58
2017-04-30T03:15:59.962Z,8.87
2017-04-30T03:18:26.656Z,9.20
2017-04-30T03:20:53.322Z,7.80
2017-04-30T03:23:19.984Z,9.17
2017-04-30T03:25:46.661Z,8.48
2017-04-30T03:28:13.335Z,10.88
2017-04-30T03:30:40.003Z,12.57
2017-04-30T03:33:06.663Z,11.92
2017-04-30T03:35:33.335Z,11.95
2017-04-30T03:38:05.831Z,10.08
2017-04-30T03:40:38.403Z,11.18
2017-04-30T03:43:10.968Z,9.55
2017-04-30T03:45:43.438Z,10.12
2017-04-30T03:48:15.807Z,9.67
2017-04-30T03:50:48.518Z,10.63
2017-04-30T03:53:21.130Z,9.27
2017-04-30T03:55:53.727Z,10.33
2017-04-30T03:58:26.143Z,9.28
2017-04-30T04:00:58.659Z,9.62
2017-04-30T04:03:31.303Z,9.98
2017-04-30T04:06:03.898Z,10.25
2017-04-30T04:08:36.414Z,10.77
2017-04-30T04:11:08.855Z,9.35
2017-04-30T04:13:41.423Z,9.18
2017-04-30T04:16:13.867Z,10.02
2017-04-30T04:18:46.247Z,8.58
2017-04-30T04:21:18.799Z,10.23
2017-04-30T04:23:51.338Z,9.92
2017-04-30T04:26:23.881Z,8.88
2017-04-30T04:28:56.242Z,10.90
2017-04-30T04:31:28.863Z,10.25
2017-04-30T04:34:01.531Z,10.05
2017-04-30T04:36:34.068Z,9.65
2017-04-30T04:39:06.591Z,10.17
2017-04-30T04:41:39.135Z,9.97
2017-04-30T04:44:11.522Z,9.82
2017-04-30T04:46:44.071Z,10.63
2017-04-30T04:49:16.587Z,11.15
2017-04-30T04:51:49.148Z,10.17
2017-04-30T04:54:21.686Z,9.87
2017-04-30T04:56:54.254Z,9.32
2017-04-30T04:59:26.770Z,8.97
2017-04-30T05:01:59.174Z,9.45
2017-04-30T05:04:31.606Z,9.53
2017-04-30T05:07:04.238Z,9.15
2017-04-30T05:09:36.742Z,9.15
2017-04-30T05:12:09.364Z,9.60
2017-04-30T05:14:41.780Z,8.53
2017-04-30T05:17:14.250Z,8.82
2017-04-30T05:19:46.755Z,9.17
2017-04-30T05:22:19.379Z,8.32
2017-04-30T05:24:51.818Z,8.65
2017-04-30T05:27:24.319Z,8.73
2017-04-30T05:29:56.824Z,9.82
2017-04-30T05:32:29.348Z,8.62
2017-04-30T05:35:01.846Z,8.45
2017-04-30T05:37:34.309Z,9.57
2017-04-30T05:40:06.898Z,8.05
2017-04-30T05:42:39.447Z,7.12
2017-04-30T05:45:11.962Z,7.65
2017-04-30T05:47:44.518Z,7.72
2017-04-30T05:50:17.094Z,7.55
2017-04-30T05:52:49.684Z,9.22
2017-04-30T05:55:22.270Z,7.88
2017-04-30T05:57:54.727Z,7.97
2017-04-30T06:00:27.157Z,8.05
2017-04-30T06:02:59.698Z,7.22
2017-04-30T06:05:32.270Z,8.08
2017-04-30T06:08:04.688Z,8.13
2017-04-30T06:10:37.309Z,8.54
2017-04-30T06:13:09.810Z,8.62
2017-04-30T06:15:42.194Z,8.04
2017-04-30T06:18:14.635Z,7.24
2017-04-30T06:20:47.006Z,7.14
2017-04-30T06:23:19.525Z,6.72
2017-04-30T06:25:52.062Z,7.40
2017-04-30T06:28:24.525Z,6.98
2017-04-30T06:30:57.084Z,6.88
2017-04-30T06:33:29.486Z,6.62
2017-04-30T06:36:02.110Z,6.12
2017-04-30T06:38:34.758Z,6.20
2017-04-30T06:41:07.267Z,6.68
2017-04-30T06:43:39.842Z,6.30
2017-04-30T06:46:12.482Z,6.28
2017-04-30T06:48:44.875Z,6.24
2017-04-30T06:51:17.490Z,6.30
2017-04-30T06:53:50.030Z,6.06
2017-04-30T06:56:22.653Z,6.28
2017-04-30T06:58:55.243Z,5.96
2017-04-30T07:01:27.611Z,6.56
2017-04-30T07:04:00.182Z,6.02
2017-04-30T07:06:33.084Z,6.50
2017-04-30T07:09:05.571Z,5.94
2017-04-30T07:11:38.059Z,6.02
2017-04-30T07:14:10.679Z,6.30
2017-04-30T07:16:43.343Z,6.42
2017-04-30T07:19:15.742Z,5.60
2017-04-30T07:21:48.254Z,6.14
2017-04-30T07:24:20.719Z,6.24
2017-04-30T07:26:53.243Z,6.16
2017-04-30T07:29:25.893Z,5.82
2017-04-30T07:31:58.379Z,6.32
2017-04-30T07:34:30.971Z,5.84
2017-04-30T07:37:03.435Z,6.04
2017-04-30T07:39:35.955Z,6.68
2017-04-30T07:42:08.528Z,6.18
2017-04-30T07:44:35.187Z,5.92
2017-04-30T07:47:01.859Z,5.96
2017-04-30T07:49:28.519Z,6.12
2017-04-30T07:51:55.187Z,5.90
2017-04-30T07:54:21.898Z,6.82
2017-04-30T07:56:48.562Z,6.06
2017-04-30T07:59:15.242Z,5.56
2017-04-30T08:01:41.914Z,5.64
2017-04-30T08:04:08.571Z,5.68
2017-04-30T08:06:35.255Z,5.78
2017-04-30T08:09:01.921Z,5.92
2017-04-30T08:11:28.606Z,6.24
2017-04-30T08:13:55.271Z,5.68
2017-04-30T08:16:21.936Z,5.92
2017-04-30T08:18:48.601Z,5.16
2017-04-30T08:21:15.303Z,5.36
2017-04-30T08:23:41.959Z,6.06
2017-04-30T08:26:08.619Z,5.30
2017-04-30T08:28:35.293Z,5.96
2017-04-30T08:31:01.951Z,5.80
2017-04-30T08:33:28.613Z,5.12
2017-04-30T08:35:55.286Z,5.00
2017-04-30T08:38:21.952Z,5.06
2017-04-30T08:40:48.615Z,5.62
2017-04-30T08:43:15.293Z,5.60
2017-04-30T08:45:41.954Z,4.84
2017-04-30T08:48:08.630Z,5.00
2017-04-30T08:50:35.299Z,5.50
2017-04-30T08:53:01.991Z,4.92
2017-04-30T08:55:28.658Z,5.22
2017-04-30T08:57:55.321Z,5.00
2017-04-30T09:00:21.983Z,5.12
2017-04-30T09:02:48.642Z,5.30
2017-04-30T09:05:15.314Z,5.80
2017-04-30T09:07:42.015Z,5.30
2017-04-30T09:10:08.682Z,5.38
2017-04-30T09:12:35.351Z,5.78
2017-04-30T09:15:02.028Z,4.80
2017-04-30T09:17:28.690Z,4.68
2017-04-30T09:19:55.354Z,5.44
2017-04-30T09:22:22.018Z,5.08
2017-04-30T09:24:48.686Z,4.80
2017-04-30T09:27:15.350Z,5.74
2017-04-30T09:29:42.238Z,5.30
2017-04-30T09:32:08.903Z,5.22
2017-04-30T09:34:35.590Z,5.42
2017-04-30T09:37:02.256Z,5.38
2017-04-30T09:39:28.943Z,5.30
2017-04-30T09:41:55.615Z,5.58
2017-04-30T09:44:22.278Z,4.88
2017-04-30T09:46:48.963Z,5.56
2017-04-30T09:49:15.635Z,5.20
2017-04-30T09:51:42.322Z,5.66
2017-04-30T09:54:08.976Z,4.86
2017-04-30T09:56:35.674Z,5.52
2017-04-30T09:59:02.332Z,4.88
2017-04-30T10:01:28.994Z,5.00
2017-04-30T10:03:55.682Z,5.22
2017-04-30T10:06:22.342Z,4.80
2017-04-30T10:08:49.030Z,4.76
2017-04-30T10:11:15.720Z,5.28
2017-04-30T10:13:42.384Z,4.62
2017-04-30T10:16:09.065Z,5.30
2017-04-30T10:18:35.726Z,5.08
2017-04-30T10:21:02.406Z,5.00
2017-04-30T10:23:29.070Z,5.76
2017-04-30T10:25:55.758Z,5.18
2017-04-30T10:28:22.415Z,5.30
2017-04-30T10:30:49.118Z,6.28
2017-04-30T10:33:15.782Z,5.70
2017-04-30T10:35:42.442Z,6.24
2017-04-30T10:38:09.133Z,5.90
2017-04-30T10:40:35.797Z,5.28
2017-04-30T10:43:02.481Z,5.90
2017-04-30T10:45:29.139Z,6.06
2017-04-30T10:47:55.832Z,6.60
2017-04-30T10:50:22.493Z,6.60
2017-04-30T10:52:49.151Z,6.20
2017-04-30T10:55:15.834Z,5.52
2017-04-30T10:57:42.514Z,5.72
2017-04-30T11:00:09.198Z,5.40
2017-04-30T11:02:35.860Z,6.24
2017-04-30T11:05:02.566Z,5.78
2017-04-30T11:07:29.225Z,5.98
2017-04-30T11:09:55.887Z,5.88
2017-04-30T11:12:22.575Z,11.18
2017-04-30T11:14:49.239Z,5.14
2017-04-30T11:17:15.927Z,5.98
2017-04-30T11:19:42.583Z,5.12
2017-04-30T11:22:09.279Z,5.30
2017-04-30T11:24:35.935Z,5.55
2017-04-30T11:27:02.601Z,5.18
2017-04-30T11:29:29.291Z,5.15
2017-04-30T11:31:55.950Z,5.25
2017-04-30T11:34:22.630Z,4.48
2017-04-30T11:36:49.283Z,5.50
2017-04-30T11:39:15.991Z,4.98
2017-04-30T11:41:42.654Z,5.12
2017-04-30T11:44:09.319Z,4.67
2017-04-30T11:46:36.002Z,4.88
2017-04-30T11:49:02.662Z,5.48
2017-04-30T11:51:29.351Z,5.10
2017-04-30T11:53:56.022Z,5.65
2017-04-30T11:56:22.727Z,5.42
2017-04-30T11:58:49.389Z,5.77
2017-04-30T12:01:16.050Z,5.00
2017-04-30T12:03:42.733Z,4.73
2017-04-30T12:06:09.399Z,5.45
2017-04-30T12:08:36.100Z,4.72
2017-04-30T12:11:02.787Z,4.77
2017-04-30T12:13:29.447Z,5.83
2017-04-30T12:15:56.131Z,4.90
2017-04-30T12:18:22.799Z,5.47
2017-04-30T12:20:49.478Z,4.60
2017-04-30T12:23:16.422Z,5.30
2017-04-30T12:25:43.107Z,5.25
2017-04-30T12:28:10.191Z,4.42
2017-04-30T12:30:36.855Z,4.10
2017-04-30T12:33:03.534Z,5.40
2017-04-30T12:35:30.190Z,5.32
2017-04-30T12:37:56.894Z,4.70
2017-04-30T12:40:23.557Z,4.73
2017-04-30T12:42:50.219Z,5.18
2017-04-30T12:45:16.901Z,5.25
2017-04-30T12:47:43.567Z,4.90
2017-04-30T12:50:10.251Z,5.02
2017-04-30T12:52:36.910Z,4.42
2017-04-30T12:55:03.593Z,4.97
2017-04-30T12:57:30.256Z,5.12
2017-04-30T12:59:56.923Z,5.55
2017-04-30T13:02:23.606Z,4.55
2017-04-30T13:04:50.267Z,4.93
2017-04-30T13:07:16.951Z,5.08
2017-04-30T13:09:43.615Z,5.47
2017-04-30T13:12:10.301Z,5.30
2017-04-30T13:14:36.954Z,4.87
2017-04-30T13:17:03.607Z,4.98
2017-04-30T13:19:30.290Z,5.62
2017-04-30T13:21:56.957Z,4.52
2017-04-30T13:24:23.635Z,4.55
2017-04-30T13:26:50.308Z,5.02
2017-04-30T13:29:17.003Z,5.20
2017-04-30T13:31:43.665Z,5.65
2017-04-30T13:34:10.323Z,4.62
2017-04-30T13:36:37.006Z,4.52
2017-04-30T13:39:03.671Z,5.05
2017-04-30T13:41:30.359Z,4.68
2017-04-30T13:43:57.019Z,4.47
2017-04-30T13:46:23.711Z,5.52
2017-04-30T13:48:50.370Z,5.38
2017-04-30T13:51:17.035Z,5.35
2017-04-30T13:53:43.720Z,5.33
2017-04-30T13:56:10.377Z,4.23
2017-04-30T13:58:37.059Z,4.12
2017-04-30T14:01:03.718Z,4.30
2017-04-30T14:03:30.403Z,4.10
2017-04-30T14:05:57.067Z,4.30
2017-04-30T14:08:23.730Z,4.02
2017-04-30T14:10:50.410Z,3.87
2017-04-30T14:13:17.071Z,4.60
2017-04-30T14:15:43.758Z,4.57
2017-04-30T14:18:10.412Z,4.35
2017-04-30T14:20:37.099Z,3.85
2017-04-30T14:23:03.750Z,4.33
2017-04-30T14:25:30.419Z,4.57
2017-04-30T14:27:57.127Z,4.82
2017-04-30T14:30:23.790Z,4.52
2017-04-30T14:32:50.475Z,5.07
2017-04-30T14:35:17.138Z,5.43
2017-04-30T14:37:43.824Z,5.27
2017-04-30T14:40:10.490Z,4.48
2017-04-30T14:42:37.147Z,4.30
2017-04-30T14:45:03.831Z,4.03
2017-04-30T14:47:30.500Z,4.42
2017-04-30T14:49:57.187Z,9.25
2017-04-30T14:52:23.847Z,5.42
2017-04-30T14:54:50.534Z,4.80
2017-04-30T14:57:17.194Z,4.88
2017-04-30T14:59:43.862Z,5.70
2017-04-30T15:02:10.531Z,4.60
2017-04-30T15:04:37.190Z,4.57
2017-04-30T15:07:03.848Z,5.15
2017-04-30T15:09:30.518Z,5.03
2017-04-30T15:11:57.175Z,5.18
2017-04-30T15:14:23.836Z,7.23
2017-04-30T15:16:50.498Z,5.35
2017-04-30T15:19:17.159Z,4.97
2017-04-30T15:21:43.813Z,5.18
2017-04-30T15:24:10.482Z,5.38
2017-04-30T15:26:37.142Z,6.13
2017-04-30T15:29:03.807Z,5.60
2017-04-30T15:31:30.476Z,5.72
2017-04-30T15:33:57.133Z,5.40
2017-04-30T15:36:23.791Z,4.32
2017-04-30T15:38:50.450Z,4.13
2017-04-30T15:41:17.110Z,5.25
2017-04-30T15:43:43.776Z,5.48
2017-04-30T15:46:10.439Z,4.77
2017-04-30T15:48:37.098Z,4.48
2017-04-30T15:51:03.758Z,4.38
2017-04-30T15:53:30.415Z,5.07
2017-04-30T15:55:57.074Z,4.47
2017-04-30T15:58:23.732Z,4.40
2017-04-30T16:00:50.395Z,5.38
2017-04-30T16:03:17.059Z,5.08
2017-04-30T16:05:43.721Z,5.77
2017-04-30T16:08:10.383Z,4.53
2017-04-30T16:10:37.051Z,4.78
2017-04-30T16:13:03.715Z,3.22
2017-04-30T16:15:30.366Z,3.87
2017-04-30T16:17:57.036Z,4.57
2017-04-30T16:20:23.724Z,3.60
2017-04-30T16:22:50.393Z,3.52
2017-04-30T16:25:17.059Z,4.13
2017-04-30T16:27:43.718Z,3.85
2017-04-30T16:30:10.388Z,3.42
2017-04-30T16:32:37.058Z,3.90
2017-04-30T16:35:03.724Z,3.92
2017-04-30T16:37:30.387Z,3.42
2017-04-30T16:39:57.053Z,2.82
2017-04-30T16:42:23.710Z,3.68
2017-04-30T16:44:50.382Z,3.98
2017-04-30T16:47:17.053Z,4.17
2017-04-30T16:49:43.722Z,3.83
2017-04-30T16:52:10.407Z,3.63
2017-04-30T16:54:37.068Z,4.02
2017-04-30T16:57:03.735Z,3.30
2017-04-30T16:59:30.395Z,3.20
2017-04-30T17:01:57.055Z,3.42
2017-04-30T17:04:23.718Z,3.27
2017-04-30T17:06:50.381Z,3.87
2017-04-30T17:09:17.291Z,3.55
2017-04-30T17:11:43.956Z,3.38
2017-04-30T17:14:10.626Z,3.65
2017-04-30T17:16:37.296Z,3.20
2017-04-30T17:19:03.961Z,3.35
2017-04-30T17:21:30.622Z,3.42
2017-04-30T17:23:57.296Z,3.35
2017-04-30T17:26:23.963Z,3.17
2017-04-30T17:28:50.632Z,3.10
2017-04-30T17:31:17.295Z,3.00
2017-04-30T17:33:43.964Z,3.62
2017-04-30T17:36:10.655Z,3.00
2017-04-30T17:38:37.326Z,2.98
2017-04-30T17:41:03.992Z,3.55
2017-04-30T17:43:30.650Z,3.42
2017-04-30T17:45:57.315Z,3.23
2017-04-30T17:48:24.010Z,3.57
2017-04-30T17:50:50.672Z,3.27
2017-04-30T17:53:17.389Z,3.35
2017-04-30T17:55:44.059Z,3.13
2017-04-30T17:58:10.724Z,3.55
2017-04-30T18:00:37.391Z,3.58
2017-04-30T18:03:04.060Z,3.83
2017-04-30T18:05:30.720Z,3.13
2017-04-30T18:07:57.379Z,2.97
2017-04-30T18:10:24.050Z,3.27
2017-04-30T18:12:50.715Z,3.47
2017-04-30T18:15:17.379Z,3.73
2017-04-30T18:17:44.038Z,3.48
2017-04-30T18:20:10.704Z,3.38
2017-04-30T18:22:37.362Z,3.50
2017-04-30T18:25:04.052Z,4.35
2017-04-30T18:27:30.734Z,3.85
2017-04-30T18:29:57.410Z,4.05
2017-04-30T18:32:24.086Z,3.62
2017-04-30T18:34:50.742Z,3.95
2017-04-30T18:37:17.416Z,4.48
2017-04-30T18:39:44.078Z,3.95
2017-04-30T18:42:10.739Z,4.75
2017-04-30T18:44:37.406Z,4.93
2017-04-30T18:47:04.071Z,4.18
2017-04-30T18:49:30.741Z,4.45
2017-04-30T18:51:57.408Z,4.23
2017-04-30T18:54:24.071Z,3.80
2017-04-30T18:56:50.751Z,4.20
2017-04-30T18:59:17.412Z,4.43
2017-04-30T19:01:44.075Z,5.15
2017-04-30T19:04:10.747Z,5.95
2017-04-30T19:06:37.409Z,5.35
2017-04-30T19:09:04.079Z,5.12
2017-04-30T19:11:30.748Z,5.53
2017-04-30T19:13:57.417Z,4.48
2017-04-30T19:16:24.086Z,4.15
2017-04-30T19:18:50.746Z,4.28
2017-04-30T19:21:17.427Z,4.77
2017-04-30T19:23:44.090Z,4.50
2017-04-30T19:26:10.751Z,4.83
2017-04-30T19:28:37.416Z,4.10
2017-04-30T19:31:04.084Z,4.10
2017-04-30T19:33:30.748Z,4.85
2017-04-30T19:35:57.438Z,4.77
2017-04-30T19:38:24.100Z,4.32
2017-04-30T19:40:50.790Z,4.18
2017-04-30T19:43:17.472Z,5.17
2017-04-30T19:45:44.142Z,4.30
2017-04-30T19:48:10.808Z,3.72
2017-04-30T19:50:37.482Z,4.30
2017-04-30T19:53:04.153Z,4.07
2017-04-30T19:55:30.818Z,3.88
2017-04-30T19:57:57.488Z,4.12
2017-04-30T20:00:24.163Z,3.70
2017-04-30T20:02:50.823Z,3.62
2017-04-30T20:05:17.491Z,4.32
2017-04-30T20:07:44.151Z,5.17
2017-04-30T20:10:10.840Z,5.17
2017-04-30T20:12:37.498Z,4.93
2017-04-30T20:15:04.163Z,4.83
2017-04-30T20:17:30.824Z,6.12
2017-04-30T20:19:57.505Z,6.28
2017-04-30T20:22:24.178Z,5.93
2017-04-30T20:24:50.838Z,6.00
2017-04-30T20:27:17.747Z,6.32
2017-04-30T20:29:44.446Z,7.13
2017-04-30T20:32:11.110Z,8.72
2017-04-30T20:34:37.781Z,8.37
2017-04-30T20:37:04.444Z,7.25
2017-04-30T20:39:31.110Z,8.48
2017-04-30T20:41:57.779Z,7.57
2017-04-30T20:44:24.454Z,7.30
2017-04-30T20:46:51.126Z,9.22
2017-04-30T20:49:17.803Z,7.58
2017-04-30T20:51:44.463Z,8.30
2017-04-30T20:54:11.134Z,7.22
2017-04-30T20:56:38.139Z,8.63
2017-04-30T20:59:04.826Z,8.87
2017-04-30T21:01:31.502Z,8.53
2017-04-30T21:03:58.179Z,8.88
2017-04-30T21:06:24.839Z,8.27
2017-04-30T21:08:51.499Z,7.80
2017-04-30T21:11:18.166Z,8.10
2017-04-30T21:13:44.838Z,9.38
2017-04-30T21:16:11.530Z,9.47
2017-04-30T21:18:38.197Z,9.25
2017-04-30T21:21:04.916Z,11.88
2017-04-30T21:23:31.586Z,9.57
2017-04-30T21:25:58.262Z,9.33
2017-04-30T21:28:24.934Z,8.03
2017-04-30T21:30:51.600Z,9.12
2017-04-30T21:33:18.272Z,8.82
2017-04-30T21:35:44.943Z,9.08
2017-04-30T21:38:11.638Z,10.40
2017-04-30T21:40:38.309Z,9.40
2017-04-30T21:43:04.993Z,10.33
2017-04-30T21:45:31.659Z,8.23
2017-04-30T21:47:58.335Z,9.23
2017-04-30T21:50:25.011Z,10.25
2017-04-30T21:52:51.675Z,9.95
2017-04-30T21:55:18.347Z,9.73
2017-04-30T21:57:45.019Z,9.53
2017-04-30T22:00:11.687Z,9.33
2017-04-30T22:02:38.360Z,10.82
2017-04-30T22:05:05.028Z,8.42
2017-04-30T22:07:31.691Z,8.40
2017-04-30T22:09:58.363Z,9.60
2017-04-30T22:12:25.044Z,10.18
2017-04-30T22:14:51.711Z,9.73
2017-04-30T22:17:18.382Z,8.80
2017-04-30T22:19:45.066Z,9.77
2017-04-30T22:22:11.738Z,8.55
2017-04-30T22:24:38.422Z,9.02
2017-04-30T22:27:05.091Z,8.82
2017-04-30T22:29:31.766Z,8.98
2017-04-30T22:31:58.435Z,8.83
2017-04-30T22:34:25.447Z,8.48
2017-04-30T22:36:52.115Z,9.53
2017-04-30T22:39:18.899Z,7.72
2017-04-30T22:41:45.571Z,9.78
2017-04-30T22:44:12.327Z,8.33
2017-04-30T22:46:39.011Z,8.48
2017-04-30T22:49:05.687Z,9.38
2017-04-30T22:51:32.431Z,9.58
2017-04-30T22:53:59.130Z,9.38
2017-04-30T22:56:25.802Z,10.22
2017-04-30T22:58:52.469Z,9.28
2017-04-30T23:01:19.147Z,10.05
2017-04-30T23:03:45.814Z,8.52
2017-04-30T23:06:12.487Z,9.52
2017-04-30T23:08:39.151Z,8.97
2017-04-30T23:11:05.824Z,9.55
2017-04-30T23:13:32.591Z,9.63
2017-04-30T23:15:59.270Z,9.25
2017-04-30T23:18:25.939Z,10.15
2017-04-30T23:20:52.627Z,10.33
2017-04-30T23:23:19.291Z,9.72
2017-04-30T23:25:45.967Z,10.30
2017-04-30T23:28:12.656Z,11.38
2017-04-30T23:30:39.336Z,7.73
2017-04-30T23:33:06.008Z,9.32
2017-04-30T23:35:32.706Z,10.75
2017-04-30T23:37:59.377Z,10.97
2017-04-30T23:40:26.050Z,10.82
2017-04-30T23:42:52.731Z,11.20
2017-04-30T23:45:19.402Z,11.88
2017-04-30T23:47:46.073Z,11.33
2017-04-30T23:50:12.753Z,11.27
2017-04-30T23:52:39.418Z,9.93
2017-04-30T23:55:06.094Z,10.87
2017-04-30T23:57:32.771Z,11.22
2017-04-30T23:59:59.447Z,12.28
